Time;durP1;ratioP1;P1;durP2;ratioP2;P2;SDS_P1;SDS_P2;PMS_P1;PMS_P2;Temp;Humidity;BMP_temperature;BMP_pressure;BME280_temperature;BME280_humidity;BME280_pressure;Samples;Min_cycle;Max_cycle;Signal;HPM_P1;HPM_P2
2023/12/26 00:01:54;;;;;;;14.02;13.43;;;9.20;99.90;;;;;;5016021;28;20049;-85
2023/12/26 00:04:22;;;;;;;13.15;12.55;;;9.20;99.90;;;;;;5033625;28;20042;-85
2023/12/26 00:06:48;;;;;;;13.50;13.00;;;9.20;99.90;;;;;;5019927;28;20057;-85
2023/12/26 00:09:15;;;;;;;12.93;12.32;;;9.20;99.90;;;;;;5020307;28;20132;-85
2023/12/26 00:11:45;;;;;;;12.48;11.98;;;9.20;99.90;;;;;;5035411;28;20052;-85
2023/12/26 00:14:12;;;;;;;12.98;12.48;;;9.20;99.90;;;;;;5019358;28;20092;-83
2023/12/26 00:16:41;;;;;;;12.73;12.23;;;9.30;99.90;;;;;;5035787;28;20114;-82
2023/12/26 00:19:08;;;;;;;12.60;12.10;;;9.30;99.90;;;;;;5036540;28;20060;-82
2023/12/26 00:21:34;;;;;;;13.13;12.63;;;9.30;99.90;;;;;;5036169;28;20056;-84
2023/12/26 00:23:59;;;;;;;12.77;12.20;;;9.30;99.90;;;;;;5035732;28;20125;-81
2023/12/26 00:26:25;;;;;;;13.60;13.00;;;9.20;99.90;;;;;;5036012;28;20041;-84
2023/12/26 00:28:52;;;;;;;13.40;12.75;;;9.20;99.90;;;;;;5036515;28;20085;-85
2023/12/26 00:31:17;;;;;;;12.50;12.00;;;9.20;99.90;;;;;;5019249;28;20478;-81
2023/12/26 00:33:43;;;;;;;12.63;12.13;;;9.30;99.90;;;;;;5035266;28;20052;-85
2023/12/26 00:36:13;;;;;;;13.13;12.63;;;9.20;99.90;;;;;;5018969;28;20045;-83
2023/12/26 00:38:39;;;;;;;12.93;12.43;;;9.20;99.90;;;;;;5035996;28;20462;-86
2023/12/26 00:41:05;;;;;;;12.70;12.10;;;9.30;99.90;;;;;;5035297;28;20045;-85
2023/12/26 00:43:31;;;;;;;12.55;12.05;;;9.30;99.90;;;;;;5002212;28;20092;-85
2023/12/26 00:45:58;;;;;;;13.02;12.52;;;9.20;99.90;;;;;;5019653;28;20497;-85
2023/12/26 00:48:24;;;;;;;12.52;12.02;;;9.30;99.90;;;;;;5035253;28;20081;-81
2023/12/26 00:50:49;;;;;;;12.60;12.10;;;9.30;99.90;;;;;;5035160;28;20049;-85
2023/12/26 00:53:15;;;;;;;12.70;12.20;;;9.30;99.90;;;;;;5003138;28;20469;-85
2023/12/26 00:55:41;;;;;;;13.20;12.70;;;9.30;99.90;;;;;;5035413;28;20064;-84
2023/12/26 00:58:06;;;;;;;12.27;11.85;;;9.40;99.90;;;;;;5019356;28;20045;-82
2023/12/26 01:00:32;;;;;;;13.32;12.82;;;9.40;99.90;;;;;;5018338;28;20375;-84
2023/12/26 01:02:58;;;;;;;14.00;13.50;;;9.40;99.90;;;;;;5002450;28;20048;-83
2023/12/26 01:05:23;;;;;;;13.32;12.82;;;9.30;99.90;;;;;;5019309;28;20050;-84
2023/12/26 01:07:49;;;;;;;12.77;12.30;;;9.30;99.90;;;;;;5034912;28;20136;-85
2023/12/26 01:10:15;;;;;;;13.00;12.50;;;9.40;99.90;;;;;;5002130;28;20049;-84
2023/12/26 01:12:41;;;;;;;12.65;11.95;;;9.40;99.90;;;;;;5001614;28;20045;-84
2023/12/26 01:15:07;;;;;;;13.88;13.38;;;9.40;99.90;;;;;;5001849;28;20088;-86
2023/12/26 01:17:32;;;;;;;12.57;12.18;;;9.40;99.90;;;;;;5035474;28;20041;-86
2023/12/26 01:19:58;;;;;;;12.18;11.77;;;9.40;99.90;;;;;;5018261;28;20045;-84
2023/12/26 01:22:23;;;;;;;11.95;11.55;;;9.40;99.90;;;;;;5018971;28;20049;-84
2023/12/26 01:24:52;;;;;;;12.10;11.68;;;9.40;99.90;;;;;;5001759;28;20049;-85
2023/12/26 01:27:18;;;;;;;13.27;12.77;;;9.30;99.90;;;;;;5034491;28;20060;-85
2023/12/26 01:29:44;;;;;;;12.18;11.57;;;9.40;99.90;;;;;;5017778;28;20370;-87
2023/12/26 01:32:09;;;;;;;12.77;12.30;;;9.40;99.90;;;;;;5002265;28;20037;-85
2023/12/26 01:34:35;;;;;;;12.63;12.13;;;9.40;99.90;;;;;;5035283;28;20076;-83
2023/12/26 01:37:01;;;;;;;14.05;13.43;;;9.40;99.90;;;;;;5034360;28;20060;-84
2023/12/26 01:39:28;;;;;;;13.27;12.75;;;9.30;99.90;;;;;;5018145;28;20123;-84
2023/12/26 01:41:53;;;;;;;13.40;12.90;;;9.30;99.90;;;;;;5017733;28;20050;-84
2023/12/26 01:44:20;;;;;;;13.20;12.70;;;9.30;99.90;;;;;;5017565;28;20049;-84
2023/12/26 01:46:46;;;;;;;13.18;12.68;;;9.40;99.90;;;;;;5018082;28;20533;-86
2023/12/26 01:49:13;;;;;;;13.90;12.95;;;9.30;99.90;;;;;;5034386;28;20053;-85
2023/12/26 01:51:42;;;;;;;13.57;13.07;;;9.30;99.90;;;;;;5017493;28;20081;-85
2023/12/26 01:54:08;;;;;;;13.98;13.48;;;9.30;99.90;;;;;;5034039;28;20111;-83
2023/12/26 01:56:34;;;;;;;13.02;12.52;;;9.30;99.90;;;;;;5017939;28;20136;-85
2023/12/26 01:59:02;;;;;;;13.40;12.90;;;9.20;99.90;;;;;;5017466;28;20465;-86
2023/12/26 02:01:29;;;;;;;14.23;13.73;;;9.30;99.90;;;;;;5018182;28;20049;-85
2023/12/26 02:03:57;;;;;;;13.45;12.95;;;9.20;99.90;;;;;;5034207;28;20496;-86
2023/12/26 02:06:23;;;;;;;13.38;12.85;;;9.20;99.90;;;;;;5034208;28;20057;-89
2023/12/26 02:08:49;;;;;;;13.27;12.68;;;9.20;99.90;;;;;;5017315;28;20396;-84
2023/12/26 02:11:15;;;;;;;14.35;13.65;;;9.10;99.90;;;;;;5033613;28;20410;-85
2023/12/26 02:13:41;;;;;;;13.13;12.63;;;9.10;99.90;;;;;;5017163;28;20051;-85
2023/12/26 02:16:15;;;;;;;12.85;12.25;;;9.10;99.90;;;;;;5034400;28;20131;-86
2023/12/26 02:18:42;;;;;;;15.18;14.38;;;9.10;99.90;;;;;;5034468;28;20042;-84
2023/12/26 02:21:08;;;;;;;14.70;14.00;;;9.10;99.90;;;;;;5000715;28;20053;-87
2023/12/26 02:23:36;;;;;;;14.57;13.88;;;9.00;99.90;;;;;;5034301;28;20037;-82
2023/12/26 02:26:03;;;;;;;15.63;14.82;;;9.00;99.90;;;;;;5016778;28;20049;-85
2023/12/26 02:28:30;;;;;;;17.15;16.35;;;9.00;99.90;;;;;;5000372;28;20108;-85
2023/12/26 02:30:58;;;;;;;14.70;14.10;;;9.00;99.90;;;;;;5000665;28;20478;-85
2023/12/26 02:33:23;;;;;;;15.63;15.02;;;9.00;99.90;;;;;;5034085;28;20378;-87
2023/12/26 02:35:49;;;;;;;15.18;14.57;;;9.00;99.90;;;;;;5034047;28;20051;-83
2023/12/26 02:38:15;;;;;;;15.07;14.38;;;9.00;99.90;;;;;;5017622;28;20376;-85
2023/12/26 02:40:41;;;;;;;15.32;14.57;;;9.00;99.90;;;;;;5016681;28;20055;-85
2023/12/26 02:43:06;;;;;;;15.75;14.85;;;9.00;99.90;;;;;;5032582;28;20057;-85
2023/12/26 02:45:32;;;;;;;16.58;15.60;;;9.10;99.90;;;;;;5033107;28;20061;-84
2023/12/26 02:47:58;;;;;;;16.02;15.32;;;9.00;99.90;;;;;;5016670;28;20049;-84
2023/12/26 02:50:24;;;;;;;16.63;15.63;;;9.00;99.90;;;;;;5033231;28;20441;-84
2023/12/26 02:52:49;;;;;;;14.35;13.65;;;9.00;99.90;;;;;;5033480;28;20458;-83
2023/12/26 02:55:15;;;;;;;14.77;14.20;;;9.00;99.90;;;;;;5033489;28;20049;-88
2023/12/26 02:57:41;;;;;;;15.27;14.48;;;9.10;99.90;;;;;;5000463;28;20191;-85
2023/12/26 03:00:07;;;;;;;13.25;12.68;;;9.10;99.90;;;;;;5033672;28;20107;-85
2023/12/26 03:02:34;;;;;;;14.32;13.60;;;9.10;99.90;;;;;;5017265;28;20049;-87
2023/12/26 03:04:59;;;;;;;15.85;15.00;;;9.10;99.90;;;;;;5016495;28;20367;-87
2023/12/26 03:07:25;;;;;;;10.55;9.70;;;9.10;99.90;;;;;;5032799;28;20117;-85
2023/12/26 03:09:52;;;;;;;11.02;10.35;;;9.10;99.90;;;;;;5032741;28;20373;-86
2023/12/26 03:12:18;;;;;;;11.85;11.05;;;9.20;99.90;;;;;;4999874;28;20052;-83
2023/12/26 03:14:43;;;;;;;12.23;11.45;;;9.20;99.90;;;;;;4999899;28;20045;-84
2023/12/26 03:17:09;;;;;;;10.85;10.30;;;9.20;99.90;;;;;;5017037;28;20037;-82
2023/12/26 03:19:35;;;;;;;12.25;11.68;;;9.20;99.90;;;;;;5016461;28;20049;-84
2023/12/26 03:22:01;;;;;;;10.75;10.05;;;9.10;99.90;;;;;;5000083;28;20103;-85
2023/12/26 03:24:27;;;;;;;10.80;10.10;;;9.10;99.90;;;;;;5016912;28;20536;-84
2023/12/26 03:26:53;;;;;;;10.77;10.07;;;9.10;99.90;;;;;;5032495;28;20049;-83
2023/12/26 03:29:18;;;;;;;9.43;8.93;;;9.10;99.90;;;;;;5016372;28;20094;-85
2023/12/26 03:31:45;;;;;;;9.68;9.18;;;9.00;99.90;;;;;;5000378;28;20038;-84
2023/12/26 03:34:11;;;;;;;11.35;10.63;;;9.10;99.90;;;;;;5016197;28;20148;-86
2023/12/26 03:36:48;;;;;;;9.52;8.95;;;9.10;99.90;;;;;;5015950;28;20072;-83
2023/12/26 03:39:14;;;;;;;9.30;8.82;;;9.20;99.90;;;;;;5034348;28;20390;-84
2023/12/26 03:41:40;;;;;;;10.80;10.30;;;9.20;99.90;;;;;;5036320;28;20049;-85
2023/12/26 03:44:06;;;;;;;13.90;12.77;;;9.20;99.90;;;;;;5036098;28;20060;-85
2023/12/26 03:46:32;;;;;;;8.77;8.38;;;9.10;99.90;;;;;;5036757;28;20041;-85
2023/12/26 03:48:57;;;;;;;3.70;3.17;;;8.90;99.90;;;;;;5020140;28;20042;-87
2023/12/26 03:51:23;;;;;;;4.18;3.97;;;8.50;99.90;;;;;;5020193;28;20041;-86
2023/12/26 03:53:49;;;;;;;3.45;3.17;;;8.10;99.90;;;;;;5019892;28;20086;-86
2023/12/26 03:56:14;;;;;;;4.25;4.05;;;7.70;99.90;;;;;;5020738;28;20045;-86
2023/12/26 03:58:40;;;;;;;4.45;4.18;;;7.40;99.90;;;;;;5020686;28;20167;-85
2023/12/26 04:01:06;;;;;;;5.05;4.80;;;7.30;99.90;;;;;;5036680;28;20056;-85
2023/12/26 04:03:32;;;;;;;5.78;5.47;;;7.30;99.90;;;;;;5003586;28;20053;-85
2023/12/26 04:05:58;;;;;;;5.65;5.28;;;7.30;99.90;;;;;;5020528;28;20110;-86
2023/12/26 04:08:24;;;;;;;5.28;4.88;;;7.40;99.90;;;;;;5036198;28;20132;-88
2023/12/26 04:10:50;;;;;;;5.90;5.40;;;7.40;99.90;;;;;;5019643;28;20132;-87
2023/12/26 04:13:15;;;;;;;6.43;5.95;;;7.50;99.90;;;;;;5003082;28;20141;-86
2023/12/26 04:15:41;;;;;;;6.80;5.47;;;7.60;99.90;;;;;;5019668;28;20103;-86
2023/12/26 04:18:07;;;;;;;6.10;5.70;;;7.70;99.90;;;;;;5020543;28;20521;-85
2023/12/26 04:20:32;;;;;;;6.18;5.70;;;7.80;99.90;;;;;;5019176;28;20103;-86
2023/12/26 04:22:58;;;;;;;6.95;5.10;;;7.80;99.90;;;;;;5036032;28;20049;-87
2023/12/26 04:25:24;;;;;;;5.55;5.05;;;7.80;99.90;;;;;;5036155;28;20405;-87
2023/12/26 04:27:49;;;;;;;5.65;4.60;;;7.80;99.90;;;;;;5019177;28;20474;-86
2023/12/26 04:30:17;;;;;;;4.28;3.97;;;7.80;99.90;;;;;;5036698;28;20048;-87
2023/12/26 04:32:43;;;;;;;5.72;5.22;;;7.70;99.90;;;;;;5019128;28;20393;-85
2023/12/26 04:35:08;;;;;;;7.28;6.55;;;7.80;99.90;;;;;;5003280;28;20144;-88
2023/12/26 04:37:34;;;;;;;6.25;5.70;;;7.80;99.90;;;;;;5019278;28;20099;-89
2023/12/26 04:40:00;;;;;;;6.95;6.63;;;7.90;99.90;;;;;;5019172;28;20138;-86
2023/12/26 04:42:25;;;;;;;6.50;6.00;;;7.80;99.90;;;;;;5020020;28;20057;-87
2023/12/26 04:44:51;;;;;;;6.43;5.97;;;7.80;99.90;;;;;;5019594;28;20493;-84
2023/12/26 04:47:17;;;;;;;7.22;6.22;;;7.80;99.90;;;;;;5003108;28;20053;-86
2023/12/26 04:49:43;;;;;;;8.00;6.60;;;7.80;99.90;;;;;;5019252;28;20049;-89
2023/12/26 04:52:09;;;;;;;7.80;7.13;;;7.80;99.90;;;;;;5018650;28;20041;-87
2023/12/26 04:54:35;;;;;;;7.72;6.68;;;7.70;99.90;;;;;;5018916;28;20060;-86
2023/12/26 04:57:00;;;;;;;6.25;5.43;;;7.80;99.90;;;;;;5035932;28;20125;-87
2023/12/26 04:59:26;;;;;;;7.38;5.72;;;7.70;99.90;;;;;;5018857;28;20494;-86
2023/12/26 05:01:52;;;;;;;5.93;5.38;;;7.70;99.90;;;;;;5035356;28;20053;-88
2023/12/26 05:04:18;;;;;;;7.15;6.50;;;7.70;99.90;;;;;;5035062;28;20566;-86
2023/12/26 05:06:43;;;;;;;6.18;5.68;;;7.70;99.90;;;;;;5034940;28;20041;-85
2023/12/26 05:09:09;;;;;;;6.95;6.45;;;7.70;99.90;;;;;;5035227;28;20037;-87
2023/12/26 05:11:35;;;;;;;9.25;6.75;;;7.60;99.90;;;;;;5018227;28;20478;-85
2023/12/26 05:14:00;;;;;;;7.20;6.57;;;7.60;99.90;;;;;;5034789;28;20042;-86
2023/12/26 05:16:28;;;;;;;6.20;5.57;;;7.60;99.90;;;;;;5019100;28;20095;-85
2023/12/26 05:18:53;;;;;;;6.10;5.55;;;7.60;99.90;;;;;;5002041;28;20085;-86
2023/12/26 05:21:23;;;;;;;7.93;5.43;;;7.60;99.90;;;;;;5034795;28;20398;-84
2023/12/26 05:23:49;;;;;;;7.28;6.15;;;7.60;99.90;;;;;;5018768;28;20049;-86
2023/12/26 05:26:15;;;;;;;5.82;5.22;;;7.60;99.90;;;;;;5001738;28;20085;-84
2023/12/26 05:28:41;;;;;;;8.15;5.93;;;7.60;99.90;;;;;;5034811;28;20060;-86
2023/12/26 05:31:07;;;;;;;8.75;6.57;;;7.60;99.90;;;;;;5017679;28;20049;-87
2023/12/26 05:33:33;;;;;;;7.93;7.28;;;7.60;99.90;;;;;;5034366;28;20046;-84
2023/12/26 05:36:01;;;;;;;8.43;7.75;;;7.50;99.90;;;;;;5017930;28;20052;-85
2023/12/26 05:38:26;;;;;;;10.10;7.47;;;7.50;99.90;;;;;;5017824;28;20083;-84
2023/12/26 05:40:52;;;;;;;10.48;9.60;;;7.50;99.90;;;;;;5018051;28;20128;-84
2023/12/26 05:43:18;;;;;;;8.98;8.10;;;7.50;99.90;;;;;;5017432;28;20052;-84
2023/12/26 05:45:44;;;;;;;8.73;8.13;;;7.60;99.90;;;;;;5018017;28;20068;-88
2023/12/26 05:48:10;;;;;;;8.60;7.97;;;7.60;99.90;;;;;;5017370;28;20049;-84
2023/12/26 05:50:35;;;;;;;7.25;6.70;;;7.70;99.90;;;;;;5034123;28;20277;-84
2023/12/26 05:53:02;;;;;;;9.82;9.05;;;7.70;99.90;;;;;;5017415;28;20041;-83
2023/12/26 05:55:28;;;;;;;7.65;6.97;;;7.80;99.90;;;;;;5034881;28;20128;-87
2023/12/26 05:57:54;;;;;;;7.95;7.50;;;7.80;99.90;;;;;;5001239;28;20077;-85
2023/12/26 06:00:20;;;;;;;7.53;6.82;;;7.80;99.90;;;;;;5017424;28;20103;-86
2023/12/26 06:02:45;;;;;;;8.65;7.88;;;7.90;99.90;;;;;;5016476;28;20103;-84
2023/12/26 06:05:11;;;;;;;8.52;7.80;;;8.00;99.90;;;;;;5017303;28;20088;-84
2023/12/26 06:07:37;;;;;;;7.65;7.13;;;8.00;99.90;;;;;;5017551;28;20048;-83
2023/12/26 06:10:04;;;;;;;7.13;6.63;;;8.00;99.90;;;;;;5000973;28;20401;-83
2023/12/26 06:12:30;;;;;;;7.30;6.85;;;8.00;99.90;;;;;;5017200;28;20045;-87
2023/12/26 06:14:55;;;;;;;8.65;8.15;;;8.10;99.90;;;;;;5000994;28;20049;-85
2023/12/26 06:17:22;;;;;;;8.05;7.35;;;8.00;99.90;;;;;;5033597;28;20057;-83
2023/12/26 06:19:48;;;;;;;8.60;7.93;;;8.10;99.90;;;;;;5017115;28;20132;-83
2023/12/26 06:22:14;;;;;;;7.47;6.93;;;8.00;99.90;;;;;;5001108;28;20128;-84
2023/12/26 06:24:40;;;;;;;8.82;8.02;;;8.00;99.90;;;;;;5017766;28;20533;-85
2023/12/26 06:27:05;;;;;;;7.78;7.28;;;8.00;99.90;;;;;;5016954;28;20072;-84
2023/12/26 06:29:31;;;;;;;8.05;7.55;;;8.10;99.90;;;;;;5000541;28;20053;-85
2023/12/26 06:31:57;;;;;;;7.03;6.40;;;8.10;99.90;;;;;;5017672;28;20033;-84
2023/12/26 06:34:23;;;;;;;8.65;8.15;;;8.20;99.90;;;;;;5017147;28;20041;-86
2023/12/26 06:36:49;;;;;;;7.90;7.15;;;8.20;99.90;;;;;;5017195;28;20529;-85
2023/12/26 06:39:15;;;;;;;8.45;6.80;;;8.20;99.90;;;;;;5016869;28;20103;-85
2023/12/26 06:41:42;;;;;;;8.02;7.35;;;8.20;99.90;;;;;;5000379;28;20052;-86
2023/12/26 06:44:10;;;;;;;6.45;5.80;;;8.20;99.90;;;;;;5016470;28;20145;-83
2023/12/26 06:46:45;;;;;;;7.78;7.07;;;8.20;99.90;;;;;;5033349;28;20049;-86
2023/12/26 06:49:16;;;;;;;6.90;6.43;;;8.20;99.90;;;;;;5017513;28;20049;-84
2023/12/26 06:51:42;;;;;;;8.52;7.78;;;8.30;99.90;;;;;;5016841;28;20505;-84
2023/12/26 06:54:08;;;;;;;7.50;6.72;;;8.30;99.90;;;;;;5000498;28;20049;-87
2023/12/26 06:56:34;;;;;;;7.07;6.53;;;8.30;99.90;;;;;;5032589;28;20133;-84
2023/12/26 06:58:59;;;;;;;8.15;7.65;;;8.30;99.90;;;;;;5016468;28;20045;-84
2023/12/26 07:01:26;;;;;;;7.50;6.97;;;8.40;99.90;;;;;;5016444;28;20048;-83
2023/12/26 07:03:52;;;;;;;7.97;7.20;;;8.30;99.90;;;;;;5016156;28;20509;-84
2023/12/26 07:06:17;;;;;;;8.68;7.90;;;8.30;99.90;;;;;;5032811;28;20041;-85
2023/12/26 07:08:43;;;;;;;9.00;8.13;;;8.30;99.90;;;;;;5000050;28;20053;-83
2023/12/26 07:11:09;;;;;;;7.10;6.40;;;8.30;99.90;;;;;;5015904;28;20072;-86
2023/12/26 07:13:35;;;;;;;8.50;7.85;;;8.30;99.90;;;;;;5016361;28;20096;-86
2023/12/26 07:16:00;;;;;;;9.52;8.73;;;8.40;99.90;;;;;;5017004;28;20045;-83
2023/12/26 07:18:26;;;;;;;8.40;6.75;;;8.40;99.90;;;;;;5032876;28;20053;-86
2023/12/26 07:20:52;;;;;;;7.00;6.32;;;8.30;99.90;;;;;;5016246;28;20045;-86
2023/12/26 07:23:17;;;;;;;8.00;6.80;;;8.30;99.90;;;;;;5033786;28;20064;-84
2023/12/26 07:25:43;;;;;;;6.60;6.10;;;8.30;99.90;;;;;;5032621;28;20045;-87
2023/12/26 07:28:10;;;;;;;7.13;6.43;;;8.30;99.90;;;;;;5032820;28;20049;-87
2023/12/26 07:30:39;;;;;;;7.30;5.50;;;8.40;99.90;;;;;;5000728;28;20057;-86
2023/12/26 07:33:05;;;;;;;9.20;5.20;;;8.40;99.90;;;;;;5032398;28;20125;-85
2023/12/26 07:35:32;;;;;;;10.10;5.78;;;8.40;99.90;;;;;;5032569;28;20128;-85
2023/12/26 07:37:57;;;;;;;6.40;4.95;;;8.40;99.90;;;;;;5032491;28;20089;-86
2023/12/26 07:40:23;;;;;;;7.28;6.82;;;8.40;99.90;;;;;;5015958;28;20052;-85
2023/12/26 07:42:49;;;;;;;6.88;4.85;;;8.30;99.90;;;;;;5015729;28;20512;-84
2023/12/26 07:45:15;;;;;;;9.50;6.60;;;8.30;99.90;;;;;;5015800;28;20107;-85
2023/12/26 07:47:40;;;;;;;5.93;5.35;;;8.30;99.90;;;;;;5016070;28;20046;-85
2023/12/26 07:50:06;;;;;;;6.00;5.40;;;8.30;99.90;;;;;;5016090;28;20060;-88
2023/12/26 07:52:32;;;;;;;7.43;6.70;;;8.20;99.90;;;;;;5015809;28;20541;-85
2023/12/26 07:54:58;;;;;;;7.90;5.75;;;8.20;99.90;;;;;;5016754;28;20176;-86
2023/12/26 07:57:23;;;;;;;8.88;5.82;;;8.30;99.90;;;;;;4999547;28;20050;-80
2023/12/26 07:59:49;;;;;;;7.28;6.63;;;8.20;99.90;;;;;;5032030;28;20045;-80
2023/12/26 08:02:15;;;;;;;9.18;6.53;;;8.20;99.90;;;;;;5015486;28;20050;-81
2023/12/26 08:04:41;;;;;;;7.18;5.32;;;8.20;99.90;;;;;;5032066;28;20171;-81
2023/12/26 08:07:08;;;;;;;7.72;7.03;;;8.20;99.90;;;;;;5015580;28;20038;-81
2023/12/26 08:09:34;;;;;;;7.10;6.13;;;8.20;99.90;;;;;;5032713;28;20045;-80
2023/12/26 08:12:06;;;;;;;8.38;7.15;;;8.20;99.90;;;;;;5001555;28;20398;-81
2023/12/26 08:14:31;;;;;;;18.70;6.50;;;8.30;99.90;;;;;;5032348;28;20049;-79
2023/12/26 08:16:57;;;;;;;7.45;5.95;;;8.20;99.90;;;;;;5032106;28;20042;-80
2023/12/26 08:19:23;;;;;;;6.88;6.38;;;8.20;99.90;;;;;;5015662;28;20470;-79
2023/12/26 08:21:48;;;;;;;13.32;6.60;;;8.20;99.90;;;;;;5016421;28;20050;-80
2023/12/26 08:24:14;;;;;;;6.70;5.88;;;8.30;99.90;;;;;;5015893;28;20427;-80
2023/12/26 08:26:40;;;;;;;6.18;5.60;;;8.30;99.90;;;;;;5019803;28;20073;-80
2023/12/26 08:29:05;;;;;;;6.20;5.10;;;8.30;99.90;;;;;;5019108;28;20111;-81
2023/12/26 08:31:31;;;;;;;9.07;6.85;;;8.30;99.90;;;;;;5035511;28;20049;-81
2023/12/26 08:33:57;;;;;;;8.38;6.25;;;8.30;99.90;;;;;;5035635;28;20049;-81
2023/12/26 08:36:23;;;;;;;6.50;5.32;;;8.30;99.90;;;;;;5035515;28;20056;-81
2023/12/26 08:38:48;;;;;;;7.20;5.82;;;8.20;99.90;;;;;;5035468;28;20061;-81
2023/12/26 08:41:14;;;;;;;9.75;7.03;;;8.20;99.90;;;;;;5018964;28;20061;-80
2023/12/26 08:43:40;;;;;;;8.02;6.30;;;8.20;99.90;;;;;;5035707;28;20055;-81
2023/12/26 08:46:06;;;;;;;6.53;5.93;;;8.30;99.90;;;;;;5035334;28;20057;-79
2023/12/26 08:48:31;;;;;;;7.72;7.03;;;8.30;99.90;;;;;;5034684;28;20057;-87
2023/12/26 08:50:58;;;;;;;7.13;5.65;;;8.30;99.90;;;;;;5036089;28;20046;-86
2023/12/26 08:53:24;;;;;;;8.75;6.13;;;8.30;99.90;;;;;;5034937;28;20042;-88
2023/12/26 08:55:50;;;;;;;13.90;6.75;;;8.30;99.90;;;;;;5002549;28;20072;-87
2023/12/26 08:58:15;;;;;;;7.25;6.03;;;8.30;99.90;;;;;;5002307;28;20052;-87
2023/12/26 09:00:41;;;;;;;8.13;7.10;;;8.30;99.90;;;;;;5018977;28;20085;-84
2023/12/26 09:03:07;;;;;;;7.07;6.45;;;8.30;99.90;;;;;;5018708;28;20053;-88
2023/12/26 09:05:33;;;;;;;7.60;6.82;;;8.30;99.90;;;;;;5018542;28;20433;-85
2023/12/26 09:07:59;;;;;;;6.65;6.00;;;8.30;99.90;;;;;;5002333;28;20088;-87
2023/12/26 09:10:25;;;;;;;7.07;5.57;;;8.30;99.90;;;;;;5035818;28;20053;-88
2023/12/26 09:12:51;;;;;;;7.40;5.30;;;8.30;99.90;;;;;;5018867;28;20463;-84
2023/12/26 09:15:17;;;;;;;10.70;5.05;;;8.40;99.90;;;;;;5018927;28;20050;-85
2023/12/26 09:17:43;;;;;;;7.63;5.00;;;8.40;99.90;;;;;;5002159;28;20041;-84
2023/12/26 09:20:10;;;;;;;7.15;6.28;;;8.40;99.90;;;;;;5018101;28;20128;-85
2023/12/26 09:22:36;;;;;;;8.07;7.32;;;8.40;99.90;;;;;;5001959;28;20122;-85
2023/12/26 09:25:02;;;;;;;6.72;6.22;;;8.30;99.90;;;;;;5019445;28;20049;-90
2023/12/26 09:27:28;;;;;;;6.63;5.53;;;8.40;99.90;;;;;;5018668;28;20049;-85
2023/12/26 09:29:54;;;;;;;7.43;5.05;;;8.40;99.90;;;;;;5035005;28;20049;-88
2023/12/26 09:32:20;;;;;;;11.13;5.78;;;8.40;99.90;;;;;;5018077;28;20057;-85
2023/12/26 09:34:45;;;;;;;10.45;6.43;;;8.40;99.90;;;;;;5034414;28;20041;-85
2023/12/26 09:37:11;;;;;;;11.80;5.68;;;8.40;99.90;;;;;;5002207;28;20061;-86
2023/12/26 09:39:37;;;;;;;7.63;5.05;;;8.40;99.90;;;;;;5017995;28;20095;-87
2023/12/26 09:42:04;;;;;;;5.85;5.32;;;8.40;99.90;;;;;;5017972;28;20103;-84
2023/12/26 09:44:30;;;;;;;9.63;5.93;;;8.40;99.90;;;;;;5017402;28;20409;-84
2023/12/26 09:46:58;;;;;;;6.95;5.88;;;8.40;99.90;;;;;;5035103;28;20061;-85
2023/12/26 09:49:23;;;;;;;11.32;5.38;;;8.40;99.90;;;;;;5017889;28;20111;-83
2023/12/26 09:51:56;;;;;;;6.82;5.68;;;8.40;99.90;;;;;;5000794;28;20049;-84
2023/12/26 09:54:26;;;;;;;7.05;6.55;;;8.40;99.90;;;;;;5034080;28;20474;-83
2023/12/26 09:56:51;;;;;;;6.00;5.18;;;8.50;99.90;;;;;;5033982;28;20042;-82
2023/12/26 09:59:19;;;;;;;11.73;5.53;;;8.50;99.90;;;;;;5033965;28;20042;-81
2023/12/26 10:01:45;;;;;;;6.82;6.32;;;8.50;99.90;;;;;;5033870;28;20049;-83
2023/12/26 10:04:11;;;;;;;5.97;5.38;;;8.50;99.90;;;;;;5034560;28;20053;-81
2023/12/26 10:06:37;;;;;;;10.85;6.20;;;8.50;99.90;;;;;;5018122;28;20130;-82
2023/12/26 10:09:04;;;;;;;9.45;4.90;;;8.50;99.90;;;;;;5001259;28;20553;-83
2023/12/26 10:11:32;;;;;;;4.75;4.32;;;8.60;99.90;;;;;;5017891;28;20045;-82
2023/12/26 10:13:58;;;;;;;5.47;4.53;;;8.50;99.90;;;;;;5017422;28;20045;-81
2023/12/26 10:16:24;;;;;;;6.53;5.50;;;8.60;99.90;;;;;;5033776;28;20128;-83
2023/12/26 10:18:53;;;;;;;8.25;5.15;;;8.70;99.90;;;;;;5033742;28;20478;-83
2023/12/26 10:21:18;;;;;;;9.73;4.60;;;8.80;99.90;;;;;;5017818;28;20393;-81
2023/12/26 10:23:47;;;;;;;7.13;4.65;;;9.00;99.90;;;;;;5017341;28;20057;-82
2023/12/26 10:26:14;;;;;;;7.15;3.88;;;9.20;99.90;;;;;;5033449;28;20091;-84
2023/12/26 10:28:41;;;;;;;7.07;4.13;;;9.30;99.90;;;;;;5001473;28;20046;-83
2023/12/26 10:31:13;;;;;;;5.80;3.97;;;9.40;99.90;;;;;;5016873;28;20132;-82
2023/12/26 10:33:41;;;;;;;5.30;2.90;;;9.50;99.90;;;;;;5032740;28;20049;-82
2023/12/26 10:36:09;;;;;;;7.18;3.80;;;9.40;99.90;;;;;;5033205;28;20533;-83
2023/12/26 10:38:35;;;;;;;7.32;3.75;;;9.50;99.90;;;;;;5000351;28;20053;-82
2023/12/26 10:41:24;;;;;;;9.00;3.88;;;9.30;99.90;;;;;;5000256;28;20054;-81
2023/12/26 10:43:53;;;;;;;7.68;4.05;;;9.10;99.90;;;;;;5032880;28;20049;-83
2023/12/26 10:46:20;;;;;;;8.32;3.67;;;8.90;99.90;;;;;;5033843;28;20137;-84
2023/12/26 10:48:48;;;;;;;7.35;4.35;;;8.90;99.90;;;;;;5032588;28;20053;-82
2023/12/26 10:51:16;;;;;;;8.20;5.32;;;8.80;99.90;;;;;;5016671;28;20042;-83
2023/12/26 10:54:04;;;;;;;8.05;3.88;;;8.80;99.90;;;;;;5016442;28;20053;-84
2023/12/26 10:56:32;;;;;;;5.57;4.25;;;8.80;99.90;;;;;;5016692;28;20038;-83
2023/12/26 10:58:59;;;;;;;8.27;4.07;;;8.90;99.90;;;;;;5032815;28;20486;-83
2023/12/26 13:53:51;;;;;;;8.75;4.30;;;8.40;99.90;;;;;;5033653;28;20077;-84
2023/12/26 13:56:54;;;;;;;8.68;4.28;;;8.50;99.90;;;;;;5033771;28;20061;-84
2023/12/26 13:59:58;;;;;;;6.13;5.20;;;8.40;99.90;;;;;;5033965;28;20049;-84
2023/12/26 14:03:01;;;;;;;12.23;6.00;;;8.20;99.90;;;;;;5033871;28;20058;-82
2023/12/26 14:06:05;;;;;;;5.35;4.93;;;8.00;99.90;;;;;;5017237;28;20053;-85
2023/12/26 14:09:08;;;;;;;7.25;5.00;;;7.90;99.90;;;;;;5017399;28;20438;-84
2023/12/26 14:12:11;;;;;;;5.47;4.03;;;7.80;99.90;;;;;;5017313;28;20049;-82
2023/12/26 14:15:14;;;;;;;5.63;3.83;;;7.80;99.90;;;;;;5017342;28;20080;-83
2023/12/26 14:18:17;;;;;;;6.75;4.65;;;7.80;99.90;;;;;;5017186;28;20486;-84
2023/12/26 14:21:21;;;;;;;4.78;4.40;;;7.70;99.90;;;;;;5033738;28;20049;-84
2023/12/26 14:24:24;;;;;;;6.63;3.88;;;7.80;99.90;;;;;;5032578;28;20053;-83
2023/12/26 14:27:27;;;;;;;4.93;3.97;;;7.80;99.90;;;;;;5033731;28;20478;-83
2023/12/26 14:30:30;;;;;;;3.78;3.20;;;7.80;99.90;;;;;;5017346;28;20053;-84
2023/12/26 14:33:33;;;;;;;4.20;3.13;;;7.80;99.90;;;;;;5034006;28;20109;-83
2023/12/26 14:36:36;;;;;;;4.57;3.50;;;7.80;99.90;;;;;;5017103;28;20103;-82
2023/12/26 14:39:39;;;;;;;5.88;3.70;;;7.70;99.90;;;;;;5033240;28;20045;-84
2023/12/26 14:42:43;;;;;;;3.28;3.00;;;7.70;99.90;;;;;;5016606;28;20041;-84
2023/12/26 14:45:46;;;;;;;2.75;2.55;;;7.60;99.90;;;;;;5016561;28;20107;-85
2023/12/26 14:48:50;;;;;;;3.67;2.63;;;7.60;99.90;;;;;;5016693;28;20143;-82
2023/12/26 14:51:53;;;;;;;4.43;3.03;;;7.50;99.90;;;;;;5033890;28;20045;-83
2023/12/26 14:54:56;;;;;;;4.75;2.53;;;7.50;99.90;;;;;;5017478;28;20077;-84
2023/12/26 14:57:59;;;;;;;5.75;2.90;;;7.40;99.90;;;;;;5032926;28;20041;-82
2023/12/26 15:01:03;;;;;;;3.65;2.80;;;7.40;99.90;;;;;;5017310;28;20056;-82
2023/12/26 15:03:29;;;;;;;2.88;2.60;;;7.30;99.90;;;;;;5032958;28;20053;-84
2023/12/26 15:05:55;;;;;;;5.80;3.00;;;7.20;99.90;;;;;;5016796;28;20453;-82
2023/12/26 15:08:21;;;;;;;3.38;3.08;;;7.20;99.90;;;;;;5016409;28;20041;-82
2023/12/26 15:10:46;;;;;;;3.50;3.20;;;7.10;99.90;;;;;;5032691;28;20453;-83
2023/12/26 15:13:12;;;;;;;3.30;3.00;;;7.00;99.90;;;;;;5016362;28;20051;-82
2023/12/26 15:15:38;;;;;;;3.53;2.90;;;7.00;99.90;;;;;;5032749;28;20474;-82
2023/12/26 15:18:04;;;;;;;3.28;2.97;;;6.90;99.90;;;;;;5033010;28;20192;-81
2023/12/26 15:20:29;;;;;;;6.07;3.08;;;6.90;99.90;;;;;;5017141;28;20516;-83
2023/12/26 15:22:55;;;;;;;3.45;2.90;;;6.80;99.90;;;;;;5032757;28;20053;-83
2023/12/26 15:25:21;;;;;;;4.18;3.33;;;6.70;99.90;;;;;;5032383;28;20095;-84
2023/12/26 15:27:49;;;;;;;3.80;3.22;;;6.70;99.90;;;;;;5016951;28;20053;-83
2023/12/26 15:30:15;;;;;;;3.72;3.05;;;6.70;99.90;;;;;;5016913;28;20053;-82
2023/12/26 15:32:41;;;;;;;3.15;2.95;;;6.70;99.90;;;;;;5016142;28;20041;-83
2023/12/26 15:35:07;;;;;;;3.45;3.15;;;6.70;99.90;;;;;;5021732;28;20127;-82
2023/12/26 15:37:33;;;;;;;4.05;3.75;;;6.70;99.90;;;;;;5039186;28;20069;-83
2023/12/26 15:39:59;;;;;;;4.32;3.13;;;6.60;99.90;;;;;;5039926;28;20049;-82
2023/12/26 15:42:25;;;;;;;4.95;3.20;;;6.60;99.90;;;;;;5022594;28;20099;-82
2023/12/26 15:44:51;;;;;;;3.53;3.00;;;6.50;99.90;;;;;;5006033;28;20425;-82
2023/12/26 15:47:16;;;;;;;5.25;3.58;;;6.50;99.90;;;;;;5022223;28;20045;-83
2023/12/26 15:49:42;;;;;;;3.95;3.45;;;6.40;99.90;;;;;;5022620;28;20053;-82
2023/12/26 15:52:11;;;;;;;4.57;3.80;;;6.40;99.90;;;;;;5022376;28;20363;-82